sensor_id;sensor_type;location;lat;lon;timestamp;P1;P2;P0
43280;PMS5003;62175;49.416;8.690;2024-01-30T00:01:51;32;29;
43280;PMS5003;62175;49.416;8.690;2024-01-30T00:04:19;27;25;
43280;PMS5003;62175;49.416;8.690;2024-01-30T00:06:46;30;26;
43280;PMS5003;62175;49.416;8.690;2024-01-30T00:09:13;30;25;
43280;PMS5003;62175;49.416;8.690;2024-01-30T00:11:41;27;25;
43280;PMS5003;62175;49.416;8.690;2024-01-30T00:14:08;33;29;
43280;PMS5003;62175;49.416;8.690;2024-01-30T00:16:35;26;25;
43280;PMS5003;62175;49.416;8.690;2024-01-30T00:19:02;31;29;
43280;PMS5003;62175;49.416;8.690;2024-01-30T00:21:29;28;27;
43280;PMS5003;62175;49.416;8.690;2024-01-30T00:23:56;32;32;
43280;PMS5003;62175;49.416;8.690;2024-01-30T00:26:23;25;24;
43280;PMS5003;62175;49.416;8.690;2024-01-30T00:28:50;23;21;
43280;PMS5003;62175;49.416;8.690;2024-01-30T00:31:17;24;22;
43280;PMS5003;62175;49.416;8.690;2024-01-30T00:33:45;22;20;
43280;PMS5003;62175;49.416;8.690;2024-01-30T00:36:11;22;21;
43280;PMS5003;62175;49.416;8.690;2024-01-30T00:38:38;20;19;
43280;PMS5003;62175;49.416;8.690;2024-01-30T00:41:05;18;18;
43280;PMS5003;62175;49.416;8.690;2024-01-30T00:43:34;27;21;
43280;PMS5003;62175;49.416;8.690;2024-01-30T00:46:01;19;19;
43280;PMS5003;62175;49.416;8.690;2024-01-30T00:48:28;20;20;
43280;PMS5003;62175;49.416;8.690;2024-01-30T00:50:55;21;19;
43280;PMS5003;62175;49.416;8.690;2024-01-30T00:53:22;22;21;
43280;PMS5003;62175;49.416;8.690;2024-01-30T00:55:49;21;20;
43280;PMS5003;62175;49.416;8.690;2024-01-30T00:58:16;17;17;
43280;PMS5003;62175;49.416;8.690;2024-01-30T01:00:44;24;21;
43280;PMS5003;62175;49.416;8.690;2024-01-30T01:03:11;18;18;
43280;PMS5003;62175;49.416;8.690;2024-01-30T01:05:38;18;18;
43280;PMS5003;62175;49.416;8.690;2024-01-30T01:08:06;17;15;
43280;PMS5003;62175;49.416;8.690;2024-01-30T01:10:33;18;17;
43280;PMS5003;62175;49.416;8.690;2024-01-30T01:13:00;17;16;
43280;PMS5003;62175;49.416;8.690;2024-01-30T01:15:27;19;17;
43280;PMS5003;62175;49.416;8.690;2024-01-30T01:17:54;18;17;
43280;PMS5003;62175;49.416;8.690;2024-01-30T01:20:21;17;16;
43280;PMS5003;62175;49.416;8.690;2024-01-30T01:22:48;22;20;
43280;PMS5003;62175;49.416;8.690;2024-01-30T01:25:15;18;17;
43280;PMS5003;62175;49.416;8.690;2024-01-30T01:27:42;18;17;
43280;PMS5003;62175;49.416;8.690;2024-01-30T01:30:10;16;16;
43280;PMS5003;62175;49.416;8.690;2024-01-30T01:32:37;19;18;
43280;PMS5003;62175;49.416;8.690;2024-01-30T01:35:04;18;17;
43280;PMS5003;62175;49.416;8.690;2024-01-30T01:37:31;20;19;
43280;PMS5003;62175;49.416;8.690;2024-01-30T01:39:59;21;17;
43280;PMS5003;62175;49.416;8.690;2024-01-30T01:42:26;21;20;
43280;PMS5003;62175;49.416;8.690;2024-01-30T01:44:53;18;17;
43280;PMS5003;62175;49.416;8.690;2024-01-30T01:47:21;20;17;
43280;PMS5003;62175;49.416;8.690;2024-01-30T01:49:48;18;18;
43280;PMS5003;62175;49.416;8.690;2024-01-30T01:52:16;17;17;
43280;PMS5003;62175;49.416;8.690;2024-01-30T01:54:43;19;17;
43280;PMS5003;62175;49.416;8.690;2024-01-30T01:57:10;15;15;
43280;PMS5003;62175;49.416;8.690;2024-01-30T01:59:38;14;13;
43280;PMS5003;62175;49.416;8.690;2024-01-30T02:02:05;20;19;
43280;PMS5003;62175;49.416;8.690;2024-01-30T02:04:37;18;15;
43280;PMS5003;62175;49.416;8.690;2024-01-30T02:07:05;20;18;
43280;PMS5003;62175;49.416;8.690;2024-01-30T02:09:32;15;15;
43280;PMS5003;62175;49.416;8.690;2024-01-30T02:11:59;20;19;
43280;PMS5003;62175;49.416;8.690;2024-01-30T02:14:26;19;16;
43280;PMS5003;62175;49.416;8.690;2024-01-30T02:16:53;16;15;
43280;PMS5003;62175;49.416;8.690;2024-01-30T02:19:21;18;17;
43280;PMS5003;62175;49.416;8.690;2024-01-30T02:21:48;21;19;
43280;PMS5003;62175;49.416;8.690;2024-01-30T02:24:15;20;18;
43280;PMS5003;62175;49.416;8.690;2024-01-30T02:26:41;18;16;
43280;PMS5003;62175;49.416;8.690;2024-01-30T02:29:08;20;19;
43280;PMS5003;62175;49.416;8.690;2024-01-30T02:31:35;16;16;
43280;PMS5003;62175;49.416;8.690;2024-01-30T02:34:02;17;17;
43280;PMS5003;62175;49.416;8.690;2024-01-30T02:36:30;19;18;
43280;PMS5003;62175;49.416;8.690;2024-01-30T02:38:57;19;15;
43280;PMS5003;62175;49.416;8.690;2024-01-30T02:41:24;16;15;
43280;PMS5003;62175;49.416;8.690;2024-01-30T02:43:51;17;16;
43280;PMS5003;62175;49.416;8.690;2024-01-30T02:46:19;16;15;
43280;PMS5003;62175;49.416;8.690;2024-01-30T02:48:46;19;16;
43280;PMS5003;62175;49.416;8.690;2024-01-30T02:51:13;18;16;
43280;PMS5003;62175;49.416;8.690;2024-01-30T02:53:40;21;19;
43280;PMS5003;62175;49.416;8.690;2024-01-30T02:56:07;19;19;
43280;PMS5003;62175;49.416;8.690;2024-01-30T02:58:34;20;18;
43280;PMS5003;62175;49.416;8.690;2024-01-30T03:01:02;14;14;
43280;PMS5003;62175;49.416;8.690;2024-01-30T03:03:29;17;16;
43280;PMS5003;62175;49.416;8.690;2024-01-30T03:05:56;15;15;
43280;PMS5003;62175;49.416;8.690;2024-01-30T03:08:24;14;14;
43280;PMS5003;62175;49.416;8.690;2024-01-30T03:10:51;20;18;
43280;PMS5003;62175;49.416;8.690;2024-01-30T03:13:18;22;18;
43280;PMS5003;62175;49.416;8.690;2024-01-30T03:15:45;18;16;
43280;PMS5003;62175;49.416;8.690;2024-01-30T03:18:12;17;14;
43280;PMS5003;62175;49.416;8.690;2024-01-30T03:20:39;19;17;
43280;PMS5003;62175;49.416;8.690;2024-01-30T03:23:07;20;18;
43280;PMS5003;62175;49.416;8.690;2024-01-30T03:25:34;16;15;
43280;PMS5003;62175;49.416;8.690;2024-01-30T03:28:02;15;14;
43280;PMS5003;62175;49.416;8.690;2024-01-30T03:30:29;15;14;
43280;PMS5003;62175;49.416;8.690;2024-01-30T03:32:56;17;16;
43280;PMS5003;62175;49.416;8.690;2024-01-30T03:35:23;15;15;
43280;PMS5003;62175;49.416;8.690;2024-01-30T03:37:50;18;17;
43280;PMS5003;62175;49.416;8.690;2024-01-30T03:40:17;17;16;
43280;PMS5003;62175;49.416;8.690;2024-01-30T03:42:44;16;16;
43280;PMS5003;62175;49.416;8.690;2024-01-30T03:45:12;16;14;
43280;PMS5003;62175;49.416;8.690;2024-01-30T03:47:38;16;16;
43280;PMS5003;62175;49.416;8.690;2024-01-30T03:50:06;17;16;
43280;PMS5003;62175;49.416;8.690;2024-01-30T03:52:33;16;15;
43280;PMS5003;62175;49.416;8.690;2024-01-30T03:55:00;17;15;
43280;PMS5003;62175;49.416;8.690;2024-01-30T03:57:27;16;15;
43280;PMS5003;62175;49.416;8.690;2024-01-30T03:59:54;24;21;
43280;PMS5003;62175;49.416;8.690;2024-01-30T04:02:21;22;20;
43280;PMS5003;62175;49.416;8.690;2024-01-30T04:04:48;16;16;
43280;PMS5003;62175;49.416;8.690;2024-01-30T04:07:16;20;17;
43280;PMS5003;62175;49.416;8.690;2024-01-30T04:09:43;17;16;
43280;PMS5003;62175;49.416;8.690;2024-01-30T04:12:10;17;16;
43280;PMS5003;62175;49.416;8.690;2024-01-30T04:14:37;15;15;
43280;PMS5003;62175;49.416;8.690;2024-01-30T04:17:05;18;17;
43280;PMS5003;62175;49.416;8.690;2024-01-30T04:19:36;18;17;
43280;PMS5003;62175;49.416;8.690;2024-01-30T04:22:03;23;21;
43280;PMS5003;62175;49.416;8.690;2024-01-30T04:24:30;23;22;
43280;PMS5003;62175;49.416;8.690;2024-01-30T04:26:58;17;16;
43280;PMS5003;62175;49.416;8.690;2024-01-30T04:29:25;15;14;
43280;PMS5003;62175;49.416;8.690;2024-01-30T04:31:52;17;14;
43280;PMS5003;62175;49.416;8.690;2024-01-30T04:34:19;16;15;
43280;PMS5003;62175;49.416;8.690;2024-01-30T04:36:46;18;16;
43280;PMS5003;62175;49.416;8.690;2024-01-30T04:39:14;18;17;
43280;PMS5003;62175;49.416;8.690;2024-01-30T04:41:41;18;14;
43280;PMS5003;62175;49.416;8.690;2024-01-30T04:44:08;20;16;
43280;PMS5003;62175;49.416;8.690;2024-01-30T04:46:35;15;14;
43280;PMS5003;62175;49.416;8.690;2024-01-30T04:49:01;13;13;
43280;PMS5003;62175;49.416;8.690;2024-01-30T04:51:28;21;20;
43280;PMS5003;62175;49.416;8.690;2024-01-30T04:53:55;18;16;
43280;PMS5003;62175;49.416;8.690;2024-01-30T04:56:22;19;14;
43280;PMS5003;62175;49.416;8.690;2024-01-30T04:58:49;19;17;
43280;PMS5003;62175;49.416;8.690;2024-01-30T05:01:16;19;19;
43280;PMS5003;62175;49.416;8.690;2024-01-30T05:03:43;22;20;
43280;PMS5003;62175;49.416;8.690;2024-01-30T05:06:10;18;17;
43280;PMS5003;62175;49.416;8.690;2024-01-30T05:08:37;20;17;
43280;PMS5003;62175;49.416;8.690;2024-01-30T05:11:04;21;18;
43280;PMS5003;62175;49.416;8.690;2024-01-30T05:13:32;18;17;
43280;PMS5003;62175;49.416;8.690;2024-01-30T05:15:59;17;16;
43280;PMS5003;62175;49.416;8.690;2024-01-30T05:18:28;21;20;
43280;PMS5003;62175;49.416;8.690;2024-01-30T05:20:55;16;15;
43280;PMS5003;62175;49.416;8.690;2024-01-30T05:23:22;18;18;
43280;PMS5003;62175;49.416;8.690;2024-01-30T05:25:49;21;19;
43280;PMS5003;62175;49.416;8.690;2024-01-30T05:28:17;23;21;
43280;PMS5003;62175;49.416;8.690;2024-01-30T05:30:43;16;15;
43280;PMS5003;62175;49.416;8.690;2024-01-30T05:33:10;16;15;
43280;PMS5003;62175;49.416;8.690;2024-01-30T05:35:37;16;15;
43280;PMS5003;62175;49.416;8.690;2024-01-30T05:38:04;16;15;
43280;PMS5003;62175;49.416;8.690;2024-01-30T05:40:32;20;18;
43280;PMS5003;62175;49.416;8.690;2024-01-30T05:42:59;15;15;
43280;PMS5003;62175;49.416;8.690;2024-01-30T05:45:26;20;17;
43280;PMS5003;62175;49.416;8.690;2024-01-30T05:47:54;15;15;
43280;PMS5003;62175;49.416;8.690;2024-01-30T05:50:21;18;16;
43280;PMS5003;62175;49.416;8.690;2024-01-30T05:52:47;20;19;
43280;PMS5003;62175;49.416;8.690;2024-01-30T05:55:14;18;16;
43280;PMS5003;62175;49.416;8.690;2024-01-30T05:57:41;21;19;
43280;PMS5003;62175;49.416;8.690;2024-01-30T06:00:08;23;22;
43280;PMS5003;62175;49.416;8.690;2024-01-30T06:02:36;15;15;
43280;PMS5003;62175;49.416;8.690;2024-01-30T06:05:03;18;16;
43280;PMS5003;62175;49.416;8.690;2024-01-30T06:07:30;15;15;
43280;PMS5003;62175;49.416;8.690;2024-01-30T06:09:58;18;16;
43280;PMS5003;62175;49.416;8.690;2024-01-30T06:12:24;15;15;
43280;PMS5003;62175;49.416;8.690;2024-01-30T06:14:52;18;17;
43280;PMS5003;62175;49.416;8.690;2024-01-30T06:17:19;20;19;
43280;PMS5003;62175;49.416;8.690;2024-01-30T06:19:46;16;15;
43280;PMS5003;62175;49.416;8.690;2024-01-30T06:22:14;19;15;
43280;PMS5003;62175;49.416;8.690;2024-01-30T06:24:42;18;16;
43280;PMS5003;62175;49.416;8.690;2024-01-30T06:27:10;17;17;
43280;PMS5003;62175;49.416;8.690;2024-01-30T06:29:37;18;16;
43280;PMS5003;62175;49.416;8.690;2024-01-30T06:32:04;20;19;
43280;PMS5003;62175;49.416;8.690;2024-01-30T06:34:32;22;20;
43280;PMS5003;62175;49.416;8.690;2024-01-30T06:36:59;21;19;
43280;PMS5003;62175;49.416;8.690;2024-01-30T06:39:27;20;18;
43280;PMS5003;62175;49.416;8.690;2024-01-30T06:41:54;23;19;
43280;PMS5003;62175;49.416;8.690;2024-01-30T06:44:20;19;19;
43280;PMS5003;62175;49.416;8.690;2024-01-30T06:46:48;20;19;
43280;PMS5003;62175;49.416;8.690;2024-01-30T06:49:15;21;21;
43280;PMS5003;62175;49.416;8.690;2024-01-30T06:51:42;26;20;
43280;PMS5003;62175;49.416;8.690;2024-01-30T06:54:09;23;22;
43280;PMS5003;62175;49.416;8.690;2024-01-30T06:56:37;23;19;
43280;PMS5003;62175;49.416;8.690;2024-01-30T06:59:04;21;20;
43280;PMS5003;62175;49.416;8.690;2024-01-30T07:01:32;22;19;
43280;PMS5003;62175;49.416;8.690;2024-01-30T07:03:59;25;23;
43280;PMS5003;62175;49.416;8.690;2024-01-30T07:06:26;22;20;
43280;PMS5003;62175;49.416;8.690;2024-01-30T07:08:54;18;17;
43280;PMS5003;62175;49.416;8.690;2024-01-30T07:11:21;22;21;
43280;PMS5003;62175;49.416;8.690;2024-01-30T07:13:48;21;20;
43280;PMS5003;62175;49.416;8.690;2024-01-30T07:16:17;23;22;
43280;PMS5003;62175;49.416;8.690;2024-01-30T07:18:43;34;32;
43280;PMS5003;62175;49.416;8.690;2024-01-30T07:21:11;25;22;
43280;PMS5003;62175;49.416;8.690;2024-01-30T07:23:38;32;28;
43280;PMS5003;62175;49.416;8.690;2024-01-30T07:26:05;20;19;
43280;PMS5003;62175;49.416;8.690;2024-01-30T07:28:32;24;21;
43280;PMS5003;62175;49.416;8.690;2024-01-30T07:30:58;23;23;
43280;PMS5003;62175;49.416;8.690;2024-01-30T07:33:26;22;21;
43280;PMS5003;62175;49.416;8.690;2024-01-30T07:35:53;19;18;
43280;PMS5003;62175;49.416;8.690;2024-01-30T07:38:19;23;22;
43280;PMS5003;62175;49.416;8.690;2024-01-30T07:40:46;17;17;
43280;PMS5003;62175;49.416;8.690;2024-01-30T07:43:13;21;18;
43280;PMS5003;62175;49.416;8.690;2024-01-30T07:45:40;21;20;
43280;PMS5003;62175;49.416;8.690;2024-01-30T07:48:07;20;20;
43280;PMS5003;62175;49.416;8.690;2024-01-30T07:50:34;22;20;
43280;PMS5003;62175;49.416;8.690;2024-01-30T07:53:01;22;20;
43280;PMS5003;62175;49.416;8.690;2024-01-30T07:55:29;21;21;
43280;PMS5003;62175;49.416;8.690;2024-01-30T08:02:20;22;20;
43280;PMS5003;62175;49.416;8.690;2024-01-30T08:04:47;27;23;
43280;PMS5003;62175;49.416;8.690;2024-01-30T08:07:14;23;22;
43280;PMS5003;62175;49.416;8.690;2024-01-30T08:09:41;26;20;
43280;PMS5003;62175;49.416;8.690;2024-01-30T08:12:08;22;21;
43280;PMS5003;62175;49.416;8.690;2024-01-30T08:14:35;22;20;
43280;PMS5003;62175;49.416;8.690;2024-01-30T08:17:03;23;22;
43280;PMS5003;62175;49.416;8.690;2024-01-30T08:19:30;22;20;
43280;PMS5003;62175;49.416;8.690;2024-01-30T08:21:56;23;22;
43280;PMS5003;62175;49.416;8.690;2024-01-30T08:24:24;19;18;
43280;PMS5003;62175;49.416;8.690;2024-01-30T08:26:51;26;23;
43280;PMS5003;62175;49.416;8.690;2024-01-30T08:29:18;20;19;
43280;PMS5003;62175;49.416;8.690;2024-01-30T08:31:45;21;20;
43280;PMS5003;62175;49.416;8.690;2024-01-30T08:34:12;22;20;
43280;PMS5003;62175;49.416;8.690;2024-01-30T08:36:39;23;22;
43280;PMS5003;62175;49.416;8.690;2024-01-30T08:39:06;24;22;
43280;PMS5003;62175;49.416;8.690;2024-01-30T08:41:34;25;21;
43280;PMS5003;62175;49.416;8.690;2024-01-30T08:44:01;23;22;
43280;PMS5003;62175;49.416;8.690;2024-01-30T08:46:28;20;19;
43280;PMS5003;62175;49.416;8.690;2024-01-30T08:48:54;28;27;
43280;PMS5003;62175;49.416;8.690;2024-01-30T08:51:21;23;22;
43280;PMS5003;62175;49.416;8.690;2024-01-30T08:53:48;23;22;
43280;PMS5003;62175;49.416;8.690;2024-01-30T08:56:16;27;25;
43280;PMS5003;62175;49.416;8.690;2024-01-30T08:58:42;20;20;
43280;PMS5003;62175;49.416;8.690;2024-01-30T09:01:09;21;20;
43280;PMS5003;62175;49.416;8.690;2024-01-30T09:03:36;23;22;
43280;PMS5003;62175;49.416;8.690;2024-01-30T09:06:03;27;23;
43280;PMS5003;62175;49.416;8.690;2024-01-30T09:08:34;23;22;
43280;PMS5003;62175;49.416;8.690;2024-01-30T09:11:02;23;21;
43280;PMS5003;62175;49.416;8.690;2024-01-30T09:13:35;23;20;
43280;PMS5003;62175;49.416;8.690;2024-01-30T09:16:02;21;21;
43280;PMS5003;62175;49.416;8.690;2024-01-30T09:18:30;23;22;
43280;PMS5003;62175;49.416;8.690;2024-01-30T09:20:57;23;21;
43280;PMS5003;62175;49.416;8.690;2024-01-30T09:23:26;25;24;
43280;PMS5003;62175;49.416;8.690;2024-01-30T09:25:53;25;23;
43280;PMS5003;62175;49.416;8.690;2024-01-30T09:28:21;22;21;
43280;PMS5003;62175;49.416;8.690;2024-01-30T09:30:48;22;22;
43280;PMS5003;62175;49.416;8.690;2024-01-30T09:33:15;25;24;
43280;PMS5003;62175;49.416;8.690;2024-01-30T09:35:42;24;22;
43280;PMS5003;62175;49.416;8.690;2024-01-30T09:38:09;27;23;
43280;PMS5003;62175;49.416;8.690;2024-01-30T09:40:36;28;24;
43280;PMS5003;62175;49.416;8.690;2024-01-30T09:43:03;35;29;
43280;PMS5003;62175;49.416;8.690;2024-01-30T09:45:30;29;27;
43280;PMS5003;62175;49.416;8.690;2024-01-30T09:47:59;28;26;
43280;PMS5003;62175;49.416;8.690;2024-01-30T09:50:27;27;25;
43280;PMS5003;62175;49.416;8.690;2024-01-30T09:52:54;21;21;
43280;PMS5003;62175;49.416;8.690;2024-01-30T09:55:23;27;27;
43280;PMS5003;62175;49.416;8.690;2024-01-30T09:57:50;21;21;
43280;PMS5003;62175;49.416;8.690;2024-01-30T10:00:18;28;22;
43280;PMS5003;62175;49.416;8.690;2024-01-30T10:02:45;32;29;
43280;PMS5003;62175;49.416;8.690;2024-01-30T10:05:13;26;24;
43280;PMS5003;62175;49.416;8.690;2024-01-30T10:07:53;21;21;
43280;PMS5003;62175;49.416;8.690;2024-01-30T10:10:21;26;25;
43280;PMS5003;62175;49.416;8.690;2024-01-30T10:12:48;27;26;
43280;PMS5003;62175;49.416;8.690;2024-01-30T10:15:15;28;27;
43280;PMS5003;62175;49.416;8.690;2024-01-30T10:17:44;32;29;
43280;PMS5003;62175;49.416;8.690;2024-01-30T10:20:12;28;27;
43280;PMS5003;62175;49.416;8.690;2024-01-30T10:22:39;26;25;
43280;PMS5003;62175;49.416;8.690;2024-01-30T10:25:06;27;24;
43280;PMS5003;62175;49.416;8.690;2024-01-30T10:27:33;25;24;
43280;PMS5003;62175;49.416;8.690;2024-01-30T10:30:01;23;23;
43280;PMS5003;62175;49.416;8.690;2024-01-30T10:32:28;28;27;
43280;PMS5003;62175;49.416;8.690;2024-01-30T10:34:56;28;27;
43280;PMS5003;62175;49.416;8.690;2024-01-30T10:37:23;28;26;
43280;PMS5003;62175;49.416;8.690;2024-01-30T10:39:52;26;25;
43280;PMS5003;62175;49.416;8.690;2024-01-30T10:42:20;25;22;
43280;PMS5003;62175;49.416;8.690;2024-01-30T10:44:54;25;22;
43280;PMS5003;62175;49.416;8.690;2024-01-30T10:47:26;26;26;
43280;PMS5003;62175;49.416;8.690;2024-01-30T10:49:55;26;25;
43280;PMS5003;62175;49.416;8.690;2024-01-30T10:52:23;31;29;
43280;PMS5003;62175;49.416;8.690;2024-01-30T10:54:50;29;24;
43280;PMS5003;62175;49.416;8.690;2024-01-30T10:57:18;30;27;
43280;PMS5003;62175;49.416;8.690;2024-01-30T10:59:45;29;26;
43280;PMS5003;62175;49.416;8.690;2024-01-30T11:02:13;26;24;
43280;PMS5003;62175;49.416;8.690;2024-01-30T11:04:41;25;24;
43280;PMS5003;62175;49.416;8.690;2024-01-30T11:07:15;27;24;
43280;PMS5003;62175;49.416;8.690;2024-01-30T11:09:48;24;24;
43280;PMS5003;62175;49.416;8.690;2024-01-30T11:12:16;22;22;
43280;PMS5003;62175;49.416;8.690;2024-01-30T11:14:47;30;27;
43280;PMS5003;62175;49.416;8.690;2024-01-30T11:17:15;31;27;
43280;PMS5003;62175;49.416;8.690;2024-01-30T11:19:42;26;26;
43280;PMS5003;62175;49.416;8.690;2024-01-30T11:22:08;26;24;
43280;PMS5003;62175;49.416;8.690;2024-01-30T11:24:39;27;25;
43280;PMS5003;62175;49.416;8.690;2024-01-30T11:27:08;28;24;
43280;PMS5003;62175;49.416;8.690;2024-01-30T11:29:35;29;28;
43280;PMS5003;62175;49.416;8.690;2024-01-30T11:32:03;26;26;
43280;PMS5003;62175;49.416;8.690;2024-01-30T11:34:31;25;24;
43280;PMS5003;62175;49.416;8.690;2024-01-30T11:37:01;32;27;
43280;PMS5003;62175;49.416;8.690;2024-01-30T11:39:32;28;26;
43280;PMS5003;62175;49.416;8.690;2024-01-30T11:41:59;33;32;
43280;PMS5003;62175;49.416;8.690;2024-01-30T11:44:26;33;31;
43280;PMS5003;62175;49.416;8.690;2024-01-30T11:46:53;29;28;
43280;PMS5003;62175;49.416;8.690;2024-01-30T11:49:20;29;26;
43280;PMS5003;62175;49.416;8.690;2024-01-30T11:51:48;31;28;
43280;PMS5003;62175;49.416;8.690;2024-01-30T11:54:15;33;30;
43280;PMS5003;62175;49.416;8.690;2024-01-30T11:56:42;27;26;
43280;PMS5003;62175;49.416;8.690;2024-01-30T11:59:09;27;27;
43280;PMS5003;62175;49.416;8.690;2024-01-30T12:01:36;28;27;
43280;PMS5003;62175;49.416;8.690;2024-01-30T12:04:04;30;28;
43280;PMS5003;62175;49.416;8.690;2024-01-30T12:06:31;27;27;
43280;PMS5003;62175;49.416;8.690;2024-01-30T12:08:58;30;29;
43280;PMS5003;62175;49.416;8.690;2024-01-30T12:11:27;28;26;
43280;PMS5003;62175;49.416;8.690;2024-01-30T12:13:54;34;32;
43280;PMS5003;62175;49.416;8.690;2024-01-30T12:16:22;29;27;
43280;PMS5003;62175;49.416;8.690;2024-01-30T12:18:49;29;28;
43280;PMS5003;62175;49.416;8.690;2024-01-30T12:21:26;29;28;
43280;PMS5003;62175;49.416;8.690;2024-01-30T12:23:53;33;31;
43280;PMS5003;62175;49.416;8.690;2024-01-30T12:26:20;32;31;
43280;PMS5003;62175;49.416;8.690;2024-01-30T12:28:48;26;26;
43280;PMS5003;62175;49.416;8.690;2024-01-30T12:31:15;25;25;
43280;PMS5003;62175;49.416;8.690;2024-01-30T12:33:43;25;24;
43280;PMS5003;62175;49.416;8.690;2024-01-30T12:36:11;29;27;
43280;PMS5003;62175;49.416;8.690;2024-01-30T12:38:38;27;25;
43280;PMS5003;62175;49.416;8.690;2024-01-30T12:41:06;25;24;
43280;PMS5003;62175;49.416;8.690;2024-01-30T12:43:34;29;28;
43280;PMS5003;62175;49.416;8.690;2024-01-30T12:46:01;25;25;
43280;PMS5003;62175;49.416;8.690;2024-01-30T12:48:29;31;28;
43280;PMS5003;62175;49.416;8.690;2024-01-30T12:50:56;32;29;
43280;PMS5003;62175;49.416;8.690;2024-01-30T12:53:23;30;24;
43280;PMS5003;62175;49.416;8.690;2024-01-30T12:55:50;24;23;
43280;PMS5003;62175;49.416;8.690;2024-01-30T12:58:17;24;23;
43280;PMS5003;62175;49.416;8.690;2024-01-30T13:00:44;30;25;
43280;PMS5003;62175;49.416;8.690;2024-01-30T13:03:11;33;29;
43280;PMS5003;62175;49.416;8.690;2024-01-30T13:05:39;25;21;
43280;PMS5003;62175;49.416;8.690;2024-01-30T13:08:07;24;22;
43280;PMS5003;62175;49.416;8.690;2024-01-30T13:10:34;25;23;
43280;PMS5003;62175;49.416;8.690;2024-01-30T13:13:01;24;22;
43280;PMS5003;62175;49.416;8.690;2024-01-30T13:15:28;27;26;
43280;PMS5003;62175;49.416;8.690;2024-01-30T13:17:55;24;22;
43280;PMS5003;62175;49.416;8.690;2024-01-30T13:20:22;24;23;
43280;PMS5003;62175;49.416;8.690;2024-01-30T13:22:49;24;23;
43280;PMS5003;62175;49.416;8.690;2024-01-30T13:25:16;26;23;
43280;PMS5003;62175;49.416;8.690;2024-01-30T13:27:44;27;24;
43280;PMS5003;62175;49.416;8.690;2024-01-30T13:30:11;25;24;
43280;PMS5003;62175;49.416;8.690;2024-01-30T13:32:38;26;22;
43280;PMS5003;62175;49.416;8.690;2024-01-30T13:35:06;23;22;
43280;PMS5003;62175;49.416;8.690;2024-01-30T13:37:33;29;24;
43280;PMS5003;62175;49.416;8.690;2024-01-30T13:40:00;30;25;
43280;PMS5003;62175;49.416;8.690;2024-01-30T13:42:27;27;26;
43280;PMS5003;62175;49.416;8.690;2024-01-30T13:44:54;25;24;
43280;PMS5003;62175;49.416;8.690;2024-01-30T13:47:21;25;24;
43280;PMS5003;62175;49.416;8.690;2024-01-30T13:49:48;25;25;
43280;PMS5003;62175;49.416;8.690;2024-01-30T13:52:15;27;26;
43280;PMS5003;62175;49.416;8.690;2024-01-30T13:54:42;25;22;
43280;PMS5003;62175;49.416;8.690;2024-01-30T13:57:10;27;22;
43280;PMS5003;62175;49.416;8.690;2024-01-30T13:59:37;25;25;
43280;PMS5003;62175;49.416;8.690;2024-01-30T14:02:06;38;36;
43280;PMS5003;62175;49.416;8.690;2024-01-30T14:04:33;35;29;
43280;PMS5003;62175;49.416;8.690;2024-01-30T14:07:01;32;29;
43280;PMS5003;62175;49.416;8.690;2024-01-30T14:09:27;25;24;
43280;PMS5003;62175;49.416;8.690;2024-01-30T14:11:54;23;23;
43280;PMS5003;62175;49.416;8.690;2024-01-30T14:14:22;26;24;
43280;PMS5003;62175;49.416;8.690;2024-01-30T14:16:49;31;26;
43280;PMS5003;62175;49.416;8.690;2024-01-30T14:19:16;22;22;
43280;PMS5003;62175;49.416;8.690;2024-01-30T14:21:43;24;23;
43280;PMS5003;62175;49.416;8.690;2024-01-30T14:24:10;26;24;
43280;PMS5003;62175;49.416;8.690;2024-01-30T14:26:37;28;27;
43280;PMS5003;62175;49.416;8.690;2024-01-30T14:29:04;26;23;
43280;PMS5003;62175;49.416;8.690;2024-01-30T14:31:31;23;23;
43280;PMS5003;62175;49.416;8.690;2024-01-30T14:33:58;22;22;
43280;PMS5003;62175;49.416;8.690;2024-01-30T14:36:25;28;26;
43280;PMS5003;62175;49.416;8.690;2024-01-30T14:38:52;24;24;
43280;PMS5003;62175;49.416;8.690;2024-01-30T14:41:19;28;28;
43280;PMS5003;62175;49.416;8.690;2024-01-30T14:43:46;29;25;
43280;PMS5003;62175;49.416;8.690;2024-01-30T14:46:13;29;27;
43280;PMS5003;62175;49.416;8.690;2024-01-30T14:48:41;27;26;
43280;PMS5003;62175;49.416;8.690;2024-01-30T14:51:08;28;27;
43280;PMS5003;62175;49.416;8.690;2024-01-30T14:53:36;27;26;
43280;PMS5003;62175;49.416;8.690;2024-01-30T14:56:03;25;24;
43280;PMS5003;62175;49.416;8.690;2024-01-30T14:58:30;27;24;
43280;PMS5003;62175;49.416;8.690;2024-01-30T15:00:58;26;25;
43280;PMS5003;62175;49.416;8.690;2024-01-30T15:03:26;27;25;
43280;PMS5003;62175;49.416;8.690;2024-01-30T15:05:54;23;23;
43280;PMS5003;62175;49.416;8.690;2024-01-30T15:08:21;27;23;
43280;PMS5003;62175;49.416;8.690;2024-01-30T15:10:48;28;25;
43280;PMS5003;62175;49.416;8.690;2024-01-30T15:13:15;27;26;
43280;PMS5003;62175;49.416;8.690;2024-01-30T15:15:42;29;26;
43280;PMS5003;62175;49.416;8.690;2024-01-30T15:18:09;22;21;
43280;PMS5003;62175;49.416;8.690;2024-01-30T15:20:36;28;26;
43280;PMS5003;62175;49.416;8.690;2024-01-30T15:23:03;24;23;
43280;PMS5003;62175;49.416;8.690;2024-01-30T15:25:31;21;21;
43280;PMS5003;62175;49.416;8.690;2024-01-30T15:27:58;23;21;
43280;PMS5003;62175;49.416;8.690;2024-01-30T15:30:25;23;21;
43280;PMS5003;62175;49.416;8.690;2024-01-30T15:32:52;31;30;
43280;PMS5003;62175;49.416;8.690;2024-01-30T15:35:19;26;23;
43280;PMS5003;62175;49.416;8.690;2024-01-30T15:37:46;29;26;
43280;PMS5003;62175;49.416;8.690;2024-01-30T15:40:13;25;24;
43280;PMS5003;62175;49.416;8.690;2024-01-30T15:42:40;26;24;
43280;PMS5003;62175;49.416;8.690;2024-01-30T15:45:07;24;24;
43280;PMS5003;62175;49.416;8.690;2024-01-30T15:47:35;26;24;
43280;PMS5003;62175;49.416;8.690;2024-01-30T15:50:02;27;26;
43280;PMS5003;62175;49.416;8.690;2024-01-30T15:52:29;25;22;
43280;PMS5003;62175;49.416;8.690;2024-01-30T15:54:56;30;27;
43280;PMS5003;62175;49.416;8.690;2024-01-30T15:57:24;27;24;
43280;PMS5003;62175;49.416;8.690;2024-01-30T15:59:50;21;20;
43280;PMS5003;62175;49.416;8.690;2024-01-30T16:02:18;21;20;
43280;PMS5003;62175;49.416;8.690;2024-01-30T16:04:47;23;20;
43280;PMS5003;62175;49.416;8.690;2024-01-30T16:07:15;24;22;
43280;PMS5003;62175;49.416;8.690;2024-01-30T16:09:41;24;22;
43280;PMS5003;62175;49.416;8.690;2024-01-30T16:12:09;23;22;
43280;PMS5003;62175;49.416;8.690;2024-01-30T16:14:36;21;20;
43280;PMS5003;62175;49.416;8.690;2024-01-30T16:17:03;24;23;
43280;PMS5003;62175;49.416;8.690;2024-01-30T16:19:31;27;22;
43280;PMS5003;62175;49.416;8.690;2024-01-30T16:21:58;26;26;
43280;PMS5003;62175;49.416;8.690;2024-01-30T16:24:25;27;26;